首页
METAR-TAF:

METAR-TAF

机场 :

文莱, 文莱

汶萊國際機場

纬度: 04-56N, 经度: 114-56E, 海拔: 22米

当前天气观测

该预报发布于23分钟前的22:00 UTC
风速2节,风向南转西南
温度 25°C
湿度 94%
气压 1010 hPa
能见度10公里或以上
少量云层高于1500英尺
散云层高于14000英尺
多云层高于28000英尺

METAR: WBSB 252200Z 20002KT 9999 FEW015 SCT140 BKN280 25/24 Q1010 NOSIG

时间: 06:23 (22:23 UTC)

预报

该预报发布于5小时和23分钟前的17:00 UTC
预报有效从25日的 18点(UTC)到 27日的 00点(UTC)
风速3节,风向南转西南
能见度10公里或以上
散云层高于1500英尺
少量云层高于1600英尺, 积雨云.
短暂存在
从 25日的 21点(UTC)到 25日的 23点(UTC)
能見度: 7000
阵雨
成为
从 26日的 03点(UTC)到 26日的 05点(UTC)
风速10节,风向北转西北
散云层高于1600英尺
少量云层高于1700英尺, 积雨云.

TAF: WBSB 251700Z 2518/2700 20003KT 9999 SCT015 FEW016CB TEMPO 2521/2523 7000 SHRA BECMG 2603/2605 33010KT SCT016 FEW017CB

超过4000个机场的气象观测和天气预报(METAR&TAF报告)。

可查询的气象台以黄色和红色小点在地图上表示。

将鼠标移到小点上方,可查看气象台名称。

然后点击查看天气观测和预报。

如需切换地图:点击带黑十字的绿色按钮放大地图;点击带横线的绿色按钮缩小地图;或者点击绿色箭头查看邻近地区的地图。


METAR-TAF: